createdAt,value
2023-02-22T00:00:24.169Z,76.10
2023-02-22T00:01:25.184Z,75.99
2023-02-22T00:02:24.152Z,75.79
2023-02-22T00:03:24.195Z,75.89
2023-02-22T00:04:24.090Z,75.89
2023-02-22T00:05:24.100Z,75.79
2023-02-22T00:06:24.093Z,75.89
2023-02-22T00:07:24.104Z,75.89
2023-02-22T00:08:24.074Z,75.89
2023-02-22T00:09:24.065Z,75.89
2023-02-22T00:10:24.022Z,76.10
2023-02-22T00:11:24.048Z,76.92
2023-02-22T00:12:24.018Z,77.33
2023-02-22T00:13:24.255Z,77.43
2023-02-22T00:14:23.985Z,77.53
2023-02-22T00:15:24.013Z,77.53
2023-02-22T00:16:24.014Z,77.43
2023-02-22T00:17:24.000Z,77.33
2023-02-22T00:18:23.935Z,77.33
2023-02-22T00:19:23.946Z,77.47
2023-02-22T00:20:23.945Z,77.67
2023-02-22T00:21:23.901Z,77.77
2023-02-22T00:22:23.900Z,77.87
2023-02-22T00:23:23.910Z,77.77
2023-02-22T00:24:23.970Z,77.98
2023-02-22T00:25:23.878Z,77.98
2023-02-22T00:26:23.838Z,78.08
2023-02-22T00:27:23.844Z,78.08
2023-02-22T00:28:23.876Z,78.08
2023-02-22T00:29:23.851Z,77.87
2023-02-22T00:30:23.998Z,77.87
2023-02-22T00:31:23.839Z,77.73
2023-02-22T00:32:23.829Z,77.64
2023-02-22T00:33:23.783Z,77.64
2023-02-22T00:34:23.774Z,77.64
2023-02-22T00:35:23.773Z,77.43
2023-02-22T00:36:23.748Z,77.33
2023-02-22T00:37:23.717Z,77.33
2023-02-22T00:38:23.760Z,77.33
2023-02-22T00:39:25.705Z,77.33
2023-02-22T00:40:23.728Z,77.33
2023-02-22T00:41:23.696Z,77.33
2023-02-22T00:42:23.701Z,77.33
2023-02-22T00:43:23.667Z,77.57
2023-02-22T00:44:23.644Z,77.98
2023-02-22T00:45:23.662Z,78.39
2023-02-22T00:46:23.633Z,78.63
2023-02-22T00:47:23.683Z,78.83
2023-02-22T00:48:23.611Z,78.83
2023-02-22T00:49:23.621Z,78.94
2023-02-22T00:50:23.592Z,78.83
2023-02-22T00:51:23.544Z,78.59
2023-02-22T00:52:24.107Z,78.39
2023-02-22T00:53:23.612Z,78.39
2023-02-22T00:54:23.565Z,78.39
2023-02-22T00:55:23.528Z,78.19
2023-02-22T00:56:23.506Z,78.19
2023-02-22T00:57:23.475Z,78.19
2023-02-22T00:58:23.496Z,78.28
2023-02-22T00:59:23.720Z,78.42
2023-02-22T01:00:23.512Z,78.39
2023-02-22T01:01:23.469Z,78.39
2023-02-22T01:02:23.544Z,78.39
2023-02-22T01:03:23.424Z,78.28
2023-02-22T01:04:23.419Z,78.28
2023-02-22T01:05:23.401Z,78.19
2023-02-22T01:06:23.397Z,78.08
2023-02-22T01:07:23.395Z,77.98
2023-02-22T01:08:23.397Z,77.87
2023-02-22T01:09:23.407Z,77.77
2023-02-22T01:10:23.356Z,77.57
2023-02-22T01:11:23.377Z,77.47
2023-02-22T01:12:23.309Z,77.57
2023-02-22T01:13:23.313Z,77.57
2023-02-22T01:14:23.328Z,77.57
2023-02-22T01:15:23.319Z,77.47
2023-02-22T01:16:23.475Z,77.47
2023-02-22T01:17:23.256Z,77.36
2023-02-22T01:18:23.517Z,77.36
2023-02-22T01:19:23.237Z,77.36
2023-02-22T01:20:23.237Z,77.47
2023-02-22T01:21:23.495Z,77.47
2023-02-22T01:22:23.233Z,77.47
2023-02-22T01:23:23.192Z,77.47
2023-02-22T01:24:23.191Z,77.47
2023-02-22T01:25:23.181Z,77.36
2023-02-22T01:26:23.222Z,77.57
2023-02-22T01:27:23.187Z,77.67
2023-02-22T01:28:23.185Z,77.57
2023-02-22T01:29:23.234Z,77.47
2023-02-22T01:30:23.120Z,77.67
2023-02-22T01:31:23.133Z,77.67
2023-02-22T01:32:23.102Z,77.77
2023-02-22T01:33:23.105Z,77.77
2023-02-22T01:34:23.107Z,77.98
2023-02-22T01:35:23.312Z,78.08
2023-02-22T01:36:23.032Z,78.08
2023-02-22T01:37:23.044Z,78.08
2023-02-22T01:38:23.029Z,78.19
2023-02-22T01:39:23.000Z,78.19
2023-02-22T01:40:23.030Z,78.08
2023-02-22T01:41:23.017Z,78.19
2023-02-22T01:42:22.987Z,78.08
2023-02-22T01:43:23.973Z,78.28
2023-02-22T01:44:22.968Z,78.39
2023-02-22T01:45:22.931Z,78.49
2023-02-22T01:46:23.032Z,78.49
2023-02-22T01:47:22.927Z,78.49
2023-02-22T01:48:22.930Z,78.28
2023-02-22T01:49:22.923Z,78.39
2023-02-22T01:50:22.892Z,78.28
2023-02-22T01:51:25.920Z,78.08
2023-02-22T01:52:22.928Z,77.87
2023-02-22T01:53:22.841Z,77.87
2023-02-22T01:54:22.868Z,77.87
2023-02-22T01:55:22.836Z,77.87
2023-02-22T01:56:22.857Z,77.77
2023-02-22T01:57:22.815Z,77.67
2023-02-22T01:58:22.781Z,77.57
2023-02-22T01:59:22.779Z,77.57
2023-02-22T02:00:22.792Z,77.47
2023-02-22T02:01:22.772Z,77.47
2023-02-22T02:02:22.771Z,77.57
2023-02-22T02:03:22.736Z,77.57
2023-02-22T02:04:22.726Z,77.67
2023-02-22T02:05:22.744Z,77.77
2023-02-22T02:06:22.725Z,77.77
2023-02-22T02:07:22.730Z,77.77
2023-02-22T02:08:22.676Z,77.77
2023-02-22T02:09:22.672Z,77.98
2023-02-22T02:10:22.653Z,78.08
2023-02-22T02:11:22.660Z,78.08
2023-02-22T02:12:22.924Z,78.19
2023-02-22T02:13:22.624Z,78.19
2023-02-22T02:14:22.649Z,78.28
2023-02-22T02:15:22.611Z,78.39
2023-02-22T02:16:22.605Z,78.39
2023-02-22T02:17:22.591Z,78.39
2023-02-22T02:18:22.583Z,78.39
2023-02-22T02:19:22.568Z,78.28
2023-02-22T02:20:22.573Z,78.08
2023-02-22T02:21:22.540Z,78.08
2023-02-22T02:22:22.817Z,78.08
2023-02-22T02:23:22.535Z,78.08
2023-02-22T02:24:22.534Z,78.19
2023-02-22T02:25:22.496Z,78.19
2023-02-22T02:26:22.485Z,78.08
2023-02-22T02:27:22.478Z,78.19
2023-02-22T02:28:22.483Z,78.49
2023-02-22T02:29:22.433Z,78.90
2023-02-22T02:30:22.483Z,79.00
2023-02-22T02:31:22.455Z,79.35
2023-02-22T02:32:22.531Z,79.35
2023-02-22T02:33:22.448Z,79.14
2023-02-22T02:34:22.395Z,79.35
2023-02-22T02:35:22.598Z,79.55
2023-02-22T02:36:22.403Z,79.66
2023-02-22T02:37:22.378Z,79.45
2023-02-22T02:38:22.378Z,79.35
2023-02-22T02:39:22.338Z,79.35
2023-02-22T02:40:22.391Z,79.24
2023-02-22T02:41:22.311Z,79.14
2023-02-22T02:42:22.387Z,79.14
2023-02-22T02:43:22.296Z,79.35
2023-02-22T02:44:22.314Z,79.31
2023-02-22T02:45:23.551Z,79.31
2023-02-22T02:46:22.757Z,79.35
2023-02-22T02:47:22.304Z,79.24
2023-02-22T02:48:22.266Z,79.24
2023-02-22T02:49:22.241Z,79.35
2023-02-22T02:50:22.209Z,79.24
2023-02-22T02:51:22.204Z,79.35
2023-02-22T02:52:22.191Z,79.45
2023-02-22T02:53:22.215Z,79.55
2023-02-22T02:54:22.183Z,79.55
2023-02-22T02:55:22.179Z,79.55
2023-02-22T02:56:22.176Z,79.55
2023-02-22T02:57:22.170Z,79.55
2023-02-22T02:58:22.342Z,79.55
2023-02-22T02:59:22.126Z,79.55
2023-02-22T03:00:22.125Z,79.66
2023-02-22T03:01:22.182Z,79.66
2023-02-22T03:02:22.096Z,79.75
2023-02-22T03:03:22.318Z,79.66
2023-02-22T03:04:22.306Z,79.55
2023-02-22T03:05:22.069Z,79.55
2023-02-22T03:06:22.063Z,79.45
2023-02-22T03:07:22.096Z,79.35
2023-02-22T03:08:22.036Z,79.35
2023-02-22T03:09:21.989Z,79.35
2023-02-22T03:10:21.978Z,79.45
2023-02-22T03:11:21.982Z,79.35
2023-02-22T03:12:21.962Z,79.35
2023-02-22T03:13:21.980Z,79.35
2023-02-22T03:14:21.937Z,79.24
2023-02-22T03:15:21.993Z,79.41
2023-02-22T03:16:21.951Z,79.35
2023-02-22T03:17:21.891Z,79.35
2023-02-22T03:18:21.964Z,79.35
2023-02-22T03:19:21.883Z,79.24
2023-02-22T03:20:21.876Z,79.14
2023-02-22T03:21:21.870Z,79.04
2023-02-22T03:22:21.828Z,79.14
2023-02-22T03:23:21.892Z,79.24
2023-02-22T03:24:21.829Z,79.24
2023-02-22T03:25:21.793Z,79.45
2023-02-22T03:26:21.791Z,79.55
2023-02-22T03:27:21.814Z,79.66
2023-02-22T03:28:21.801Z,79.66
2023-02-22T03:29:21.749Z,79.55
2023-02-22T03:30:22.027Z,79.45
2023-02-22T03:31:21.784Z,79.45
2023-02-22T03:32:21.739Z,79.35
2023-02-22T03:33:21.742Z,79.35
2023-02-22T03:34:21.693Z,79.24
2023-02-22T03:35:21.702Z,79.14
2023-02-22T03:36:21.707Z,79.24
2023-02-22T03:37:22.222Z,79.35
2023-02-22T03:38:21.651Z,79.35
2023-02-22T03:39:21.714Z,79.14
2023-02-22T03:40:21.644Z,79.14
2023-02-22T03:41:21.633Z,79.04
2023-02-22T03:42:21.639Z,78.94
2023-02-22T03:43:21.627Z,78.94
2023-02-22T03:44:21.607Z,78.94
2023-02-22T03:45:21.589Z,78.94
2023-02-22T03:46:21.648Z,79.04
2023-02-22T03:47:21.578Z,79.14
2023-02-22T03:48:21.555Z,79.14
2023-02-22T03:49:21.571Z,79.35
2023-02-22T03:50:21.563Z,79.45
2023-02-22T03:51:21.861Z,79.66
2023-02-22T03:52:21.513Z,79.86
2023-02-22T03:53:21.537Z,79.86
2023-02-22T03:54:21.493Z,80.07
2023-02-22T03:55:21.487Z,80.17
2023-02-22T03:56:21.473Z,80.07
2023-02-22T03:57:21.478Z,80.07
2023-02-22T03:58:23.363Z,80.07
2023-02-22T03:59:21.428Z,80.07
2023-02-22T04:00:21.455Z,80.07
2023-02-22T04:01:21.405Z,80.17
2023-02-22T04:02:21.444Z,80.47
2023-02-22T04:03:21.428Z,80.41
2023-02-22T04:04:21.443Z,80.41
2023-02-22T04:05:21.376Z,80.31
2023-02-22T04:06:22.640Z,80.41
2023-02-22T04:07:21.311Z,80.41
2023-02-22T04:08:21.343Z,80.41
2023-02-22T04:09:21.344Z,80.51
2023-02-22T04:10:21.321Z,80.51
2023-02-22T04:11:21.325Z,80.51
2023-02-22T04:12:22.104Z,80.41
2023-02-22T04:13:21.286Z,80.31
2023-02-22T04:14:23.235Z,80.41
2023-02-22T04:15:21.268Z,80.31
2023-02-22T04:16:21.298Z,80.31
2023-02-22T04:17:21.256Z,80.31
2023-02-22T04:18:21.231Z,80.41
2023-02-22T04:19:21.209Z,80.51
2023-02-22T04:20:21.949Z,80.62
2023-02-22T04:21:21.201Z,80.72
2023-02-22T04:22:21.166Z,80.72
2023-02-22T04:23:21.189Z,80.82
2023-02-22T04:24:21.138Z,80.82
2023-02-22T04:25:21.188Z,80.92
2023-02-22T04:26:21.148Z,80.92
2023-02-22T04:27:21.153Z,80.82
2023-02-22T04:28:21.196Z,80.82
2023-02-22T04:29:21.115Z,80.92
2023-02-22T04:30:21.125Z,81.23
2023-02-22T04:31:21.132Z,81.43
2023-02-22T04:32:21.052Z,81.54
2023-02-22T04:33:21.046Z,81.64
2023-02-22T04:34:21.058Z,81.64
2023-02-22T04:35:21.002Z,81.64
2023-02-22T04:36:21.007Z,81.64
2023-02-22T04:37:21.024Z,81.64
2023-02-22T04:38:20.970Z,81.64
2023-02-22T04:39:21.023Z,81.64
2023-02-22T04:40:21.022Z,81.54
2023-02-22T04:41:20.954Z,81.54
2023-02-22T04:42:20.973Z,81.54
2023-02-22T04:43:20.974Z,81.64
2023-02-22T04:44:20.932Z,81.64
2023-02-22T04:45:20.934Z,81.85
2023-02-22T04:46:20.965Z,82.05
2023-02-22T04:47:20.944Z,82.09
2023-02-22T04:48:20.882Z,82.09
2023-02-22T04:49:20.920Z,82.09
2023-02-22T04:50:20.866Z,82.09
2023-02-22T04:51:20.830Z,81.99
2023-02-22T04:52:20.814Z,81.99
2023-02-22T04:53:20.803Z,81.99
2023-02-22T04:54:20.839Z,82.19
2023-02-22T04:55:20.796Z,82.19
2023-02-22T04:56:20.757Z,82.09
2023-02-22T04:57:20.754Z,82.09
2023-02-22T04:58:20.760Z,82.19
2023-02-22T04:59:20.787Z,82.29
2023-02-22T05:00:20.766Z,82.29
2023-02-22T05:01:20.696Z,82.29
2023-02-22T05:02:21.078Z,82.29
2023-02-22T05:03:20.699Z,82.29
2023-02-22T05:04:20.770Z,82.40
2023-02-22T05:05:20.769Z,82.54
2023-02-22T05:06:20.710Z,82.64
2023-02-22T05:07:20.697Z,82.64
2023-02-22T05:08:20.661Z,82.54
2023-02-22T05:09:20.690Z,82.54
2023-02-22T05:10:20.612Z,82.75
2023-02-22T05:11:20.609Z,82.75
2023-02-22T05:12:20.611Z,82.64
2023-02-22T05:13:20.617Z,82.64
2023-02-22T05:14:20.620Z,82.64
2023-02-22T05:15:21.039Z,82.64
2023-02-22T05:16:20.647Z,82.54
2023-02-22T05:17:20.541Z,82.54
2023-02-22T05:18:20.796Z,82.54
2023-02-22T05:19:20.521Z,82.75
2023-02-22T05:20:20.592Z,82.84
2023-02-22T05:21:20.512Z,82.84
2023-02-22T05:22:20.489Z,82.84
2023-02-22T05:23:20.580Z,82.84
2023-02-22T05:24:20.468Z,82.84
2023-02-22T05:25:20.457Z,82.84
2023-02-22T05:26:20.464Z,82.64
2023-02-22T05:27:20.413Z,82.64
2023-02-22T05:28:20.403Z,82.75
2023-02-22T05:29:20.434Z,82.84
2023-02-22T05:30:20.416Z,82.95
2023-02-22T05:31:20.665Z,82.95
2023-02-22T05:32:20.866Z,82.95
2023-02-22T05:33:20.621Z,82.95
2023-02-22T05:34:20.393Z,83.09
2023-02-22T05:35:20.703Z,83.29
2023-02-22T05:36:20.334Z,83.50
2023-02-22T05:37:20.330Z,83.61
2023-02-22T05:38:20.587Z,83.50
2023-02-22T05:39:20.313Z,83.50
2023-02-22T05:40:20.340Z,83.61
2023-02-22T05:41:20.301Z,83.50
2023-02-22T05:42:20.465Z,83.50
2023-02-22T05:43:20.227Z,83.61
2023-02-22T05:44:20.282Z,83.61
2023-02-22T05:45:20.222Z,83.50
2023-02-22T05:46:20.219Z,83.61
2023-02-22T05:47:20.226Z,83.46
2023-02-22T05:48:22.481Z,83.36
2023-02-22T05:49:20.256Z,83.36
2023-02-22T05:50:20.189Z,83.36
2023-02-22T05:51:20.360Z,83.26
2023-02-22T05:52:20.142Z,83.26
2023-02-22T05:53:20.278Z,83.15
2023-02-22T05:54:20.363Z,83.26
2023-02-22T05:55:20.126Z,83.15
2023-02-22T05:56:20.107Z,83.05
2023-02-22T05:57:20.094Z,82.95
2023-02-22T05:58:20.080Z,82.95
2023-02-22T05:59:20.068Z,83.05
2023-02-22T06:00:20.099Z,82.95
2023-02-22T06:01:21.284Z,83.05
2023-02-22T06:02:20.027Z,83.05
2023-02-22T06:03:20.025Z,83.05
2023-02-22T06:04:20.034Z,82.95
2023-02-22T06:05:20.099Z,82.95
2023-02-22T06:06:22.180Z,82.95
2023-02-22T06:07:19.981Z,82.84
2023-02-22T06:08:19.949Z,82.84
2023-02-22T06:09:19.935Z,82.75
2023-02-22T06:10:19.954Z,82.84
2023-02-22T06:11:20.330Z,82.84
2023-02-22T06:12:19.948Z,82.84
2023-02-22T06:13:19.945Z,82.95
2023-02-22T06:14:19.862Z,82.95
2023-02-22T06:15:19.932Z,83.05
2023-02-22T06:16:19.913Z,83.15
2023-02-22T06:17:20.685Z,83.26
2023-02-22T06:18:20.946Z,83.26
2023-02-22T06:19:19.829Z,83.15
2023-02-22T06:20:19.808Z,83.15
2023-02-22T06:21:19.972Z,83.15
2023-02-22T06:22:19.796Z,83.15
2023-02-22T06:23:19.765Z,83.05
2023-02-22T06:24:19.841Z,83.05
2023-02-22T06:25:19.787Z,83.05
2023-02-22T06:26:19.769Z,83.05
2023-02-22T06:27:19.732Z,83.15
2023-02-22T06:28:19.718Z,83.05
2023-02-22T06:29:19.741Z,83.05
2023-02-22T06:30:19.733Z,83.15
2023-02-22T06:31:20.068Z,83.15
2023-02-22T06:32:19.717Z,83.15
2023-02-22T06:33:19.673Z,83.15
2023-02-22T06:34:19.709Z,83.15
2023-02-22T06:35:19.963Z,83.15
2023-02-22T06:36:19.666Z,83.05
2023-02-22T06:37:19.658Z,83.05
2023-02-22T06:38:20.092Z,83.05
2023-02-22T06:39:19.677Z,82.84
2023-02-22T06:40:19.586Z,82.64
2023-02-22T06:41:19.660Z,82.75
2023-02-22T06:42:19.603Z,82.75
2023-02-22T06:43:19.591Z,82.84
2023-02-22T06:44:19.545Z,82.70
2023-02-22T06:45:19.509Z,82.70
2023-02-22T06:46:19.598Z,82.60
2023-02-22T06:47:19.520Z,82.50
2023-02-22T06:48:19.510Z,82.29
2023-02-22T06:49:19.971Z,82.40
2023-02-22T06:50:19.489Z,82.29
2023-02-22T06:51:19.551Z,82.09
2023-02-22T06:52:19.473Z,81.88
2023-02-22T06:53:19.500Z,81.99
2023-02-22T06:54:19.429Z,81.88
2023-02-22T06:55:19.465Z,81.99
2023-02-22T06:56:19.421Z,81.99
2023-02-22T06:57:19.453Z,81.88
2023-02-22T06:58:19.390Z,81.88
2023-02-22T06:59:20.002Z,81.88
2023-02-22T07:00:19.368Z,81.88
2023-02-22T07:01:19.694Z,81.88
2023-02-22T07:02:19.604Z,81.99
2023-02-22T07:03:19.396Z,81.88
2023-02-22T07:04:19.463Z,81.99
2023-02-22T07:05:19.348Z,81.99
2023-02-22T07:06:19.335Z,81.88
2023-02-22T07:07:19.310Z,81.78
2023-02-22T07:08:19.248Z,81.78
2023-02-22T07:09:19.265Z,81.57
2023-02-22T07:10:19.281Z,81.57
2023-02-22T07:11:19.404Z,81.57
2023-02-22T07:12:19.286Z,81.68
2023-02-22T07:13:19.502Z,81.68
2023-02-22T07:14:19.452Z,81.78
2023-02-22T07:15:19.191Z,81.68
2023-02-22T07:16:19.288Z,81.57
2023-02-22T07:17:19.165Z,81.57
2023-02-22T07:18:19.165Z,81.57
2023-02-22T07:19:19.158Z,81.88
2023-02-22T07:20:19.136Z,81.88
2023-02-22T07:21:19.324Z,81.99
2023-02-22T07:22:19.137Z,82.09
2023-02-22T07:23:19.106Z,82.19
2023-02-22T07:24:19.089Z,82.29
2023-02-22T07:25:19.094Z,82.19
2023-02-22T07:26:19.079Z,82.40
2023-02-22T07:27:19.098Z,82.29
2023-02-22T07:28:19.050Z,82.19
2023-02-22T07:29:19.035Z,82.40
2023-02-22T07:30:19.064Z,82.29
2023-02-22T07:31:19.246Z,82.29
2023-02-22T07:32:19.409Z,82.19
2023-02-22T07:33:19.001Z,82.19
2023-02-22T07:34:18.981Z,82.40
2023-02-22T07:35:19.000Z,82.40
2023-02-22T07:36:20.253Z,82.19
2023-02-22T07:37:18.960Z,82.09
2023-02-22T07:38:18.939Z,82.09
2023-02-22T07:39:19.060Z,81.78
2023-02-22T07:40:18.891Z,81.64
2023-02-22T07:41:19.323Z,81.54
2023-02-22T07:42:18.904Z,81.34
2023-02-22T07:43:18.864Z,81.13
2023-02-22T07:44:18.884Z,81.02
2023-02-22T07:45:18.864Z,80.92
2023-02-22T07:46:18.832Z,80.92
2023-02-22T07:47:18.849Z,80.82
2023-02-22T07:48:18.833Z,80.72
2023-02-22T07:49:19.882Z,80.47
2023-02-22T07:50:18.800Z,80.27
2023-02-22T07:51:19.009Z,80.17
2023-02-22T07:52:18.777Z,80.17
2023-02-22T07:53:18.825Z,79.96
2023-02-22T07:54:18.830Z,80.07
2023-02-22T07:55:18.801Z,79.86
2023-02-22T07:56:19.032Z,79.62
2023-02-22T07:57:18.715Z,79.52
2023-02-22T07:58:18.706Z,79.31
2023-02-22T07:59:18.692Z,79.21
2023-02-22T08:00:18.977Z,78.97
2023-02-22T08:01:19.208Z,78.76
2023-02-22T08:02:18.735Z,78.56
2023-02-22T08:03:18.722Z,78.35
2023-02-22T08:04:18.865Z,78.01
2023-02-22T08:05:18.633Z,77.80
2023-02-22T08:06:18.620Z,77.56
2023-02-22T08:07:19.040Z,77.05
2023-02-22T08:08:19.955Z,76.64
2023-02-22T08:09:18.561Z,76.30
2023-02-22T08:10:18.801Z,75.89
2023-02-22T08:11:18.913Z,75.65
2023-02-22T08:12:18.550Z,75.14
2023-02-22T08:13:18.550Z,74.90
2023-02-22T08:14:18.617Z,74.29
2023-02-22T08:15:18.491Z,74.18
2023-02-22T08:16:18.528Z,73.84
2023-02-22T08:17:18.529Z,73.44
2023-02-22T08:18:18.502Z,73.23
2023-02-22T08:19:21.832Z,73.33
2023-02-22T08:20:18.458Z,73.03
2023-02-22T08:21:20.388Z,73.13
2023-02-22T08:22:19.704Z,73.13
2023-02-22T08:23:18.439Z,73.36
2023-02-22T08:24:18.418Z,73.68
2023-02-22T08:25:18.477Z,73.77
2023-02-22T08:26:18.444Z,73.88
2023-02-22T08:27:18.508Z,74.22
2023-02-22T08:28:18.396Z,74.43
2023-02-22T08:29:18.679Z,74.43
2023-02-22T08:30:18.690Z,74.32
2023-02-22T08:31:19.068Z,74.43
2023-02-22T08:32:18.525Z,74.52
2023-02-22T08:33:19.686Z,74.63
2023-02-22T08:34:18.455Z,74.84
2023-02-22T08:35:18.330Z,74.84
2023-02-22T08:36:18.301Z,74.84
2023-02-22T08:37:19.301Z,74.84
2023-02-22T08:38:18.296Z,74.43
2023-02-22T08:39:18.260Z,74.43
2023-02-22T08:40:18.274Z,74.32
2023-02-22T08:41:18.598Z,74.32
2023-02-22T08:42:18.226Z,74.29
2023-02-22T08:43:18.217Z,74.08
2023-02-22T08:44:18.361Z,74.08
2023-02-22T08:45:18.190Z,73.98
2023-02-22T08:46:18.240Z,73.98
2023-02-22T08:47:18.166Z,74.08
2023-02-22T08:48:18.154Z,73.88
2023-02-22T08:49:18.173Z,73.91
2023-02-22T08:50:18.147Z,74.02
2023-02-22T08:51:18.464Z,74.11
2023-02-22T08:52:18.439Z,74.22
2023-02-22T08:53:18.074Z,74.11
2023-02-22T08:54:18.048Z,74.08
2023-02-22T08:55:18.064Z,74.18
2023-02-22T08:56:18.120Z,74.18
2023-02-22T08:57:19.619Z,74.08
2023-02-22T08:58:18.053Z,73.98
2023-02-22T08:59:18.012Z,73.98
2023-02-22T09:00:17.993Z,73.84
2023-02-22T09:01:24.886Z,73.54
2023-02-22T09:02:19.016Z,73.23
2023-02-22T09:03:18.072Z,73.23
2023-02-22T09:04:17.941Z,73.13
2023-02-22T09:05:17.985Z,72.89
2023-02-22T09:06:20.930Z,72.79
2023-02-22T09:07:17.960Z,72.58
2023-02-22T09:08:17.931Z,72.34
2023-02-22T09:09:17.958Z,72.14
2023-02-22T09:10:17.922Z,71.84
2023-02-22T09:11:18.199Z,71.50
2023-02-22T09:12:17.864Z,71.19
2023-02-22T09:13:17.864Z,70.89
2023-02-22T09:14:17.853Z,70.57
2023-02-22T09:15:17.868Z,70.04
2023-02-22T09:16:17.898Z,70.14
2023-02-22T09:17:17.794Z,69.83
2023-02-22T09:18:17.821Z,69.49
2023-02-22T09:19:17.855Z,69.39
2023-02-22T09:20:17.758Z,69.19
2023-02-22T09:21:18.117Z,69.09
2023-02-22T09:22:17.967Z,68.85
2023-02-22T09:23:17.726Z,68.75
2023-02-22T09:24:17.754Z,68.95
2023-02-22T09:25:17.980Z,68.75
2023-02-22T09:26:17.747Z,68.54
2023-02-22T09:27:18.158Z,68.54
2023-02-22T09:28:17.705Z,68.65
2023-02-22T09:29:17.681Z,68.54
2023-02-22T09:30:17.696Z,68.65
2023-02-22T09:31:18.152Z,68.54
2023-02-22T09:32:17.757Z,68.41
2023-02-22T09:33:17.836Z,68.01
2023-02-22T09:34:17.658Z,68.21
2023-02-22T09:35:17.610Z,67.77
2023-02-22T09:36:18.243Z,67.36
2023-02-22T09:37:17.636Z,67.26
2023-02-22T09:38:17.900Z,67.13
2023-02-22T09:39:17.637Z,66.52
2023-02-22T09:40:17.549Z,66.31
2023-02-22T09:41:17.762Z,65.97
2023-02-22T09:42:17.635Z,65.67
2023-02-22T09:43:17.674Z,64.93
2023-02-22T09:44:17.563Z,64.79
2023-02-22T09:45:17.544Z,63.18
2023-02-22T09:46:17.999Z,60.57
2023-02-22T09:47:17.735Z,58.43
2023-02-22T09:48:22.048Z,56.02
2023-02-22T09:49:18.472Z,54.36
2023-02-22T09:50:17.494Z,53.50
2023-02-22T09:51:18.030Z,51.97
2023-02-22T09:52:17.465Z,52.04
2023-02-22T09:53:17.443Z,50.91
2023-02-22T09:54:17.398Z,51.01
2023-02-22T09:55:17.487Z,50.53
2023-02-22T09:56:17.670Z,50.48
2023-02-22T09:57:17.420Z,49.65
2023-02-22T09:58:17.371Z,48.60
2023-02-22T09:59:17.324Z,48.08
2023-02-22T10:00:17.504Z,47.25
2023-02-22T10:01:17.370Z,47.03
2023-02-22T10:02:17.873Z,46.30
2023-02-22T10:03:21.229Z,46.11
2023-02-22T10:04:17.983Z,45.98
2023-02-22T10:05:17.971Z,45.68
2023-02-22T10:06:18.625Z,45.66
2023-02-22T10:07:18.620Z,45.34
2023-02-22T10:08:18.154Z,44.84
2023-02-22T10:09:17.229Z,44.32
2023-02-22T10:10:17.227Z,43.91
2023-02-22T10:11:17.183Z,44.12
2023-02-22T10:12:17.433Z,44.43
2023-02-22T10:13:17.195Z,44.96
2023-02-22T10:14:18.414Z,45.00
2023-02-22T10:15:17.204Z,45.95
2023-02-22T10:16:17.432Z,46.97
2023-02-22T10:17:17.257Z,47.27
2023-02-22T10:18:17.131Z,46.67
2023-02-22T10:19:17.131Z,46.95
2023-02-22T10:20:17.130Z,46.04
2023-02-22T10:21:18.026Z,45.83
2023-02-22T10:22:17.789Z,45.50
2023-02-22T10:23:18.234Z,45.80
2023-02-22T10:24:18.249Z,45.38
2023-02-22T10:25:17.787Z,44.90
2023-02-22T10:26:17.579Z,45.42
2023-02-22T10:27:17.729Z,45.84
2023-02-22T10:28:17.628Z,46.04
2023-02-22T10:29:17.026Z,46.15
2023-02-22T10:30:24.538Z,46.25
2023-02-22T10:31:18.124Z,46.55
2023-02-22T10:32:19.157Z,46.45
2023-02-22T10:33:17.078Z,46.47
2023-02-22T10:34:17.096Z,46.69
2023-02-22T10:35:17.195Z,47.09
2023-02-22T10:36:17.400Z,46.69
2023-02-22T10:37:17.291Z,47.32
2023-02-22T10:38:16.924Z,47.54
2023-02-22T10:39:17.043Z,47.62
2023-02-22T10:40:16.895Z,47.19
2023-02-22T10:41:17.621Z,47.00
2023-02-22T10:42:16.879Z,46.47
2023-02-22T10:43:16.963Z,46.69
2023-02-22T10:44:16.839Z,47.19
2023-02-22T10:45:16.833Z,47.19
2023-02-22T10:46:17.286Z,46.97
2023-02-22T10:47:18.135Z,46.03
2023-02-22T10:48:16.915Z,45.80
2023-02-22T10:49:16.812Z,45.30
2023-02-22T10:50:17.052Z,45.30
2023-02-22T10:51:17.115Z,44.78
2023-02-22T10:52:16.990Z,45.00
2023-02-22T10:53:16.743Z,45.62
2023-02-22T10:54:16.817Z,45.95
2023-02-22T10:55:16.721Z,45.65
2023-02-22T10:56:17.339Z,46.15
2023-02-22T10:57:16.978Z,45.60
2023-02-22T10:58:16.949Z,44.98
2023-02-22T10:59:16.722Z,44.88
2023-02-22T11:00:16.669Z,44.68
2023-02-22T11:01:17.178Z,44.80
2023-02-22T11:02:16.677Z,44.68
2023-02-22T11:03:16.800Z,44.90
2023-02-22T11:04:16.662Z,45.84
2023-02-22T11:05:16.715Z,46.03
2023-02-22T11:06:16.927Z,46.33
2023-02-22T11:07:16.934Z,45.84
2023-02-22T11:08:16.662Z,46.17
2023-02-22T11:09:16.568Z,46.77
2023-02-22T11:10:17.345Z,46.77
2023-02-22T11:11:17.234Z,46.55
2023-02-22T11:12:18.204Z,46.03
2023-02-22T11:13:17.757Z,45.80
2023-02-22T11:14:16.846Z,45.28
2023-02-22T11:15:16.485Z,45.36
2023-02-22T11:16:16.823Z,44.35
2023-02-22T11:17:17.318Z,44.16
2023-02-22T11:18:18.618Z,44.46
2023-02-22T11:19:17.179Z,44.78
2023-02-22T11:20:16.776Z,45.10
2023-02-22T11:21:18.385Z,44.88
2023-02-22T11:22:16.904Z,44.68
2023-02-22T11:23:16.641Z,45.42
2023-02-22T11:24:23.707Z,45.92
2023-02-22T11:25:17.083Z,46.25
2023-02-22T11:26:17.242Z,46.12
2023-02-22T11:27:17.798Z,45.92
2023-02-22T11:28:17.282Z,46.23
2023-02-22T11:29:17.335Z,45.38
2023-02-22T11:30:17.009Z,45.26
2023-02-22T11:31:17.742Z,44.34
2023-02-22T11:32:16.826Z,44.26
2023-02-22T11:33:16.513Z,45.40
2023-02-22T11:34:17.220Z,46.47
2023-02-22T11:35:16.702Z,47.50
2023-02-22T11:36:17.626Z,47.70
2023-02-22T11:37:16.520Z,47.67
2023-02-22T11:38:16.609Z,47.15
2023-02-22T11:39:16.338Z,46.95
2023-02-22T11:40:16.607Z,46.55
2023-02-22T11:41:17.176Z,46.65
2023-02-22T11:42:16.770Z,46.65
2023-02-22T11:43:16.635Z,46.87
2023-02-22T11:44:16.636Z,47.17
2023-02-22T11:45:16.386Z,47.50
2023-02-22T11:46:16.172Z,47.30
2023-02-22T11:47:16.161Z,47.30
2023-02-22T11:48:16.184Z,47.70
2023-02-22T11:49:16.105Z,47.50
2023-02-22T11:50:16.124Z,47.38
2023-02-22T11:51:16.419Z,47.38
2023-02-22T11:52:16.383Z,47.17
2023-02-22T11:53:16.074Z,47.58
2023-02-22T11:54:18.852Z,46.85
2023-02-22T11:55:16.026Z,46.75
2023-02-22T11:56:17.372Z,46.53
2023-02-22T11:57:16.051Z,46.62
2023-02-22T11:58:16.037Z,46.35
2023-02-22T11:59:16.376Z,46.87
2023-02-22T12:00:16.513Z,47.27
2023-02-22T12:01:15.983Z,47.62
2023-02-22T12:02:16.206Z,48.65
2023-02-22T12:03:16.156Z,48.55
2023-02-22T12:04:16.104Z,48.83
2023-02-22T12:05:15.975Z,48.02
2023-02-22T12:06:17.303Z,48.35
2023-02-22T12:07:15.909Z,48.63
2023-02-22T12:08:19.770Z,48.05
2023-02-22T12:09:16.042Z,49.40
2023-02-22T12:10:15.873Z,49.80
2023-02-22T12:11:16.348Z,50.10
2023-02-22T12:12:15.856Z,49.60
2023-02-22T12:13:15.835Z,49.37
2023-02-22T12:14:15.899Z,49.18
2023-02-22T12:15:16.135Z,49.25
2023-02-22T12:16:16.488Z,49.27
2023-02-22T12:17:15.818Z,49.45
2023-02-22T12:18:15.801Z,49.27
2023-02-22T12:19:15.818Z,49.18
2023-02-22T12:20:16.021Z,49.25
2023-02-22T12:21:15.806Z,49.37
2023-02-22T12:22:15.732Z,49.60
2023-02-22T12:23:15.766Z,49.80
2023-02-22T12:24:15.730Z,49.80
2023-02-22T12:25:15.712Z,49.77
2023-02-22T12:26:16.176Z,49.57
2023-02-22T12:27:15.739Z,49.68
2023-02-22T12:28:24.322Z,49.37
2023-02-22T12:29:16.826Z,49.07
2023-02-22T12:30:15.959Z,50.43
2023-02-22T12:31:15.998Z,50.53
2023-02-22T12:32:15.713Z,50.40
2023-02-22T12:33:15.617Z,50.08
2023-02-22T12:34:15.741Z,49.88
2023-02-22T12:35:15.731Z,49.57
2023-02-22T12:36:15.622Z,49.45
2023-02-22T12:37:15.612Z,49.25
2023-02-22T12:38:15.624Z,49.55
2023-02-22T12:39:15.579Z,49.18
2023-02-22T12:40:15.600Z,49.35
2023-02-22T12:41:15.790Z,49.45
2023-02-22T12:42:15.604Z,49.45
2023-02-22T12:43:15.521Z,49.48
2023-02-22T12:44:15.515Z,49.37
2023-02-22T12:45:15.520Z,49.88
2023-02-22T12:46:15.772Z,49.68
2023-02-22T12:47:15.494Z,49.76
2023-02-22T12:48:15.480Z,49.22
2023-02-22T12:49:15.690Z,48.72
2023-02-22T12:50:16.053Z,49.05
2023-02-22T12:51:15.770Z,48.95
2023-02-22T12:52:21.660Z,50.13